Time;durP1;ratioP1;P1;durP2;ratioP2;P2;SDS_P1;SDS_P2;PMS_P1;PMS_P2;Temp;Humidity;BMP_temperature;BMP_pressure;BME280_temperature;BME280_humidity;BME280_pressure;Samples;Min_cycle;Max_cycle;Signal;HPM_P1;HPM_P2
2022/04/20 00:02:43;;;;;;;1.88;1.88;;;7.90;99.90;;;;;;6270533;28;20223;-68
2022/04/20 00:05:48;;;;;;;1.77;1.77;;;7.90;99.90;;;;;;6270706;28;20240;-67
2022/04/20 00:08:53;;;;;;;2.45;1.85;;;7.90;99.90;;;;;;6270082;28;20238;-67
2022/04/20 00:12:00;;;;;;;1.92;1.83;;;7.90;99.90;;;;;;6270459;28;20235;-67
2022/04/20 00:15:08;;;;;;;2.17;2.17;;;7.90;99.90;;;;;;6270176;28;20682;-69
2022/04/20 00:18:14;;;;;;;3.30;2.03;;;7.90;99.90;;;;;;6270347;28;20234;-67
2022/04/20 00:21:19;;;;;;;2.17;2.08;;;8.00;99.90;;;;;;6270639;28;20338;-67
2022/04/20 00:24:24;;;;;;;2.65;2.00;;;7.90;99.90;;;;;;6270302;28;20235;-67
2022/04/20 00:27:35;;;;;;;1.92;1.92;;;7.90;99.90;;;;;;6270389;28;20224;-66
2022/04/20 00:30:41;;;;;;;2.00;1.90;;;7.90;99.90;;;;;;6252442;28;20227;-70
2022/04/20 00:33:46;;;;;;;2.10;2.00;;;7.90;99.90;;;;;;6269754;28;20232;-67
2022/04/20 00:36:54;;;;;;;2.10;2.00;;;7.90;99.90;;;;;;6270979;28;20240;-66
2022/04/20 00:39:59;;;;;;;2.13;2.03;;;7.90;99.90;;;;;;6268577;28;20279;-66
2022/04/20 00:43:06;;;;;;;4.50;2.30;;;7.80;99.90;;;;;;6252348;28;20570;-67
2022/04/20 00:46:13;;;;;;;2.17;2.08;;;7.80;99.90;;;;;;6271240;28;20231;-66
2022/04/20 00:49:19;;;;;;;3.35;2.03;;;7.80;99.90;;;;;;6268918;28;20231;-66
2022/04/20 00:52:26;;;;;;;2.05;1.90;;;7.80;99.90;;;;;;6244390;28;20240;-66
2022/04/20 00:55:51;;;;;;;2.40;2.30;;;7.80;99.90;;;;;;6252964;28;20228;-67
2022/04/20 00:59:01;;;;;;;2.15;2.03;;;7.70;99.90;;;;;;6285039;28;20587;-66
2022/04/20 01:02:08;;;;;;;3.13;2.10;;;7.70;99.90;;;;;;6243701;28;20231;-66
2022/04/20 01:05:14;;;;;;;2.10;2.00;;;7.60;99.90;;;;;;6194848;22;20231;-67
2022/04/20 01:08:43;;;;;;;2.88;2.15;;;7.50;99.90;;;;;;6148465;28;20227;-68
2022/04/20 01:12:02;;;;;;;4.38;2.10;;;7.60;99.90;;;;;;6148850;28;20631;-66
2022/04/20 01:15:35;;;;;;;3.63;2.25;;;7.40;99.90;;;;;;6148563;28;20242;-67
2022/04/20 01:19:12;;;;;;;2.75;2.20;;;7.30;99.90;;;;;;6147534;28;20228;-66
2022/04/20 01:22:37;;;;;;;7.85;2.90;;;7.30;99.90;;;;;;6148508;28;20227;-67
2022/04/20 01:25:58;;;;;;;26.90;3.40;;;7.30;99.90;;;;;;6148586;28;20562;-66
2022/04/20 01:29:21;;;;;;;22.73;3.72;;;7.30;99.90;;;;;;6162687;28;20227;-66
2022/04/20 01:32:44;;;;;;;19.55;3.53;;;7.20;99.90;;;;;;6162628;28;20681;-66
2022/04/20 01:36:13;;;;;;;18.23;2.92;;;7.10;99.90;;;;;;6162934;28;20257;-66
2022/04/20 01:39:20;;;;;;;8.85;3.42;;;7.00;99.90;;;;;;6146018;28;20266;-67
2022/04/20 01:42:25;;;;;;;4.22;2.17;;;7.10;99.90;;;;;;6146289;28;20238;-67
2022/04/20 01:45:35;;;;;;;2.60;2.50;;;6.90;99.90;;;;;;6162775;28;20311;-67
2022/04/20 01:49:14;;;;;;;5.43;2.88;;;7.00;99.90;;;;;;6162610;28;20231;-67
2022/04/20 01:52:40;;;;;;;4.93;2.53;;;7.00;99.90;;;;;;6150125;28;20239;-68
2022/04/20 01:56:06;;;;;;;8.55;2.70;;;6.90;99.90;;;;;;6151105;28;20234;-67
2022/04/20 01:59:37;;;;;;;8.73;2.72;;;6.90;99.90;;;;;;6150844;28;20235;-65
2022/04/20 02:03:07;;;;;;;16.05;3.53;;;6.90;99.90;;;;;;6148252;28;20318;-66
2022/04/20 02:06:25;;;;;;;3.75;2.50;;;6.80;99.90;;;;;;6174773;28;20231;-67
2022/04/20 02:09:37;;;;;;;10.63;2.37;;;6.80;99.90;;;;;;6173922;28;20238;-66
2022/04/20 02:12:51;;;;;;;13.70;3.17;;;6.80;99.90;;;;;;6164435;28;20238;-68
2022/04/20 02:16:09;;;;;;;12.93;3.23;;;6.80;99.90;;;;;;6174988;28;20231;-67
2022/04/20 02:19:40;;;;;;;14.07;3.17;;;6.70;99.90;;;;;;6152210;28;20230;-67
2022/04/20 02:22:58;;;;;;;10.65;3.08;;;6.70;99.90;;;;;;6173865;28;20230;-67
2022/04/20 02:26:03;;;;;;;13.30;3.03;;;6.60;99.90;;;;;;6174203;28;20237;-68
2022/04/20 02:29:13;;;;;;;10.73;3.10;;;6.60;99.90;;;;;;6173955;28;20239;-68
2022/04/20 02:32:22;;;;;;;6.00;3.10;;;6.60;99.90;;;;;;6175477;28;20239;-68
2022/04/20 02:35:28;;;;;;;4.50;3.05;;;6.60;99.90;;;;;;6174179;28;20712;-67
2022/04/20 02:38:35;;;;;;;14.43;3.03;;;6.60;99.90;;;;;;6173094;28;20230;-66
2022/04/20 02:41:42;;;;;;;8.57;3.00;;;6.50;99.90;;;;;;6173828;28;20230;-67
2022/04/20 02:44:49;;;;;;;6.13;3.10;;;6.50;99.90;;;;;;6174856;28;20241;-67
2022/04/20 02:47:55;;;;;;;9.18;2.80;;;6.40;99.90;;;;;;6174869;28;20241;-67
2022/04/20 02:51:00;;;;;;;3.47;2.53;;;6.50;99.90;;;;;;6175500;28;20241;-67
2022/04/20 02:54:06;;;;;;;2.90;2.70;;;6.40;99.90;;;;;;6173215;28;20234;-67
2022/04/20 02:57:14;;;;;;;3.03;2.57;;;6.30;99.90;;;;;;6157606;28;20238;-68
2022/04/20 03:00:24;;;;;;;4.87;2.57;;;6.10;99.90;;;;;;6175434;28;20346;-66
2022/04/20 03:03:42;;;;;;;4.10;2.53;;;6.10;99.90;;;;;;6185446;28;20240;-66
2022/04/20 03:07:09;;;;;;;2.80;2.60;;;6.10;99.90;;;;;;6173498;28;20229;-67
2022/04/20 03:10:27;;;;;;;7.03;2.40;;;6.10;99.90;;;;;;6157615;28;20231;-66
2022/04/20 03:13:33;;;;;;;3.13;2.30;;;6.00;99.90;;;;;;6172914;28;20244;-67
2022/04/20 03:16:39;;;;;;;3.13;2.17;;;6.00;99.90;;;;;;6174169;28;20238;-67
2022/04/20 03:19:48;;;;;;;7.07;2.60;;;6.10;99.90;;;;;;6172469;28;20241;-68
2022/04/20 03:22:54;;;;;;;4.30;2.50;;;6.20;99.90;;;;;;6156922;28;20242;-66
2022/04/20 03:26:00;;;;;;;2.13;2.13;;;6.20;99.90;;;;;;6159512;28;20246;-66
2022/04/20 03:29:23;;;;;;;5.73;2.30;;;6.30;99.90;;;;;;6175354;28;20234;-67
2022/04/20 03:32:30;;;;;;;2.40;2.30;;;6.30;99.90;;;;;;6173723;28;20238;-68
2022/04/20 03:35:38;;;;;;;3.47;2.53;;;6.30;99.90;;;;;;6173437;28;20238;-67
2022/04/20 03:38:44;;;;;;;2.40;2.30;;;6.30;99.90;;;;;;6155881;28;20634;-67
2022/04/20 03:41:49;;;;;;;6.37;2.70;;;6.30;99.90;;;;;;6174004;28;20253;-67
2022/04/20 03:44:54;;;;;;;3.87;2.67;;;6.30;99.90;;;;;;6172082;28;20249;-67
2022/04/20 03:48:01;;;;;;;4.27;2.87;;;6.40;99.90;;;;;;6173198;28;20241;-66
2022/04/20 03:51:07;;;;;;;2.70;2.40;;;6.40;99.90;;;;;;6174015;28;20233;-67
2022/04/20 03:54:13;;;;;;;4.50;2.50;;;6.50;99.90;;;;;;6169725;28;20233;-67
2022/04/20 03:57:20;;;;;;;2.30;2.20;;;6.50;99.90;;;;;;6163710;28;20242;-67
2022/04/20 04:00:26;;;;;;;2.57;2.47;;;6.60;99.90;;;;;;6156301;28;20700;-66
2022/04/20 04:03:36;;;;;;;2.57;2.40;;;6.50;99.90;;;;;;6156304;28;20255;-66
2022/04/20 04:06:53;;;;;;;2.47;2.33;;;6.60;99.90;;;;;;6172171;28;20238;-67
2022/04/20 04:10:00;;;;;;;2.40;2.30;;;6.60;99.90;;;;;;6171006;28;20226;-66
2022/04/20 04:13:07;;;;;;;2.20;2.10;;;6.60;99.90;;;;;;6155594;28;20237;-65
2022/04/20 04:16:15;;;;;;;2.60;2.20;;;6.60;99.90;;;;;;6155927;28;20238;-67
2022/04/20 04:19:22;;;;;;;2.90;2.70;;;6.60;99.90;;;;;;6156058;28;20242;-67
2022/04/20 04:22:33;;;;;;;2.57;2.50;;;6.60;99.90;;;;;;6155373;28;20685;-66
2022/04/20 04:26:01;;;;;;;2.63;2.43;;;6.60;99.90;;;;;;6145176;28;20259;-65
2022/04/20 04:29:16;;;;;;;2.43;2.33;;;6.60;99.90;;;;;;6185965;28;20249;-66
2022/04/20 04:32:22;;;;;;;2.33;2.30;;;6.60;99.90;;;;;;6164119;28;20230;-67
2022/04/20 04:35:29;;;;;;;2.40;2.20;;;6.60;99.90;;;;;;6155891;28;20253;-67
2022/04/20 04:38:35;;;;;;;3.03;2.33;;;6.40;99.90;;;;;;6155115;28;20231;-67
2022/04/20 04:41:42;;;;;;;2.23;2.10;;;6.50;99.90;;;;;;6155252;28;20242;-68
2022/04/20 04:44:48;;;;;;;2.50;2.30;;;6.50;99.90;;;;;;6155278;28;20255;-68
2022/04/20 04:51:19;;;;;;;2.17;2.13;;;6.50;99.90;;;;;;6155440;28;20751;-66
2022/04/20 04:54:25;;;;;;;2.70;2.50;;;6.60;99.90;;;;;;6154747;28;20593;-65
2022/04/20 04:57:32;;;;;;;2.50;2.30;;;6.60;99.90;;;;;;6170629;28;20238;-66
2022/04/20 05:00:37;;;;;;;2.50;2.30;;;6.60;99.90;;;;;;6155295;28;20233;-67
2022/04/20 05:03:57;;;;;;;3.97;1.90;;;6.60;99.90;;;;;;6170483;28;20239;-66
2022/04/20 05:07:06;;;;;;;1.90;1.90;;;6.70;99.90;;;;;;6170375;28;20245;-66
2022/04/20 05:10:20;;;;;;;2.17;1.92;;;6.60;99.90;;;;;;6171483;28;20601;-66
2022/04/20 05:13:25;;;;;;;2.50;1.93;;;6.60;99.90;;;;;;6170948;28;20234;-68
2022/04/20 05:16:31;;;;;;;2.20;2.20;;;6.70;99.90;;;;;;6155680;28;20243;-66
2022/04/20 05:19:39;;;;;;;1.97;1.87;;;6.90;99.90;;;;;;6170659;28;20250;-67
2022/04/20 05:22:55;;;;;;;3.13;2.13;;;6.80;99.90;;;;;;6170635;28;20238;-67
2022/04/20 05:26:03;;;;;;;2.27;2.07;;;7.00;99.90;;;;;;6155112;28;20249;-68
2022/04/20 05:29:15;;;;;;;1.90;1.90;;;7.00;99.90;;;;;;6174968;28;20587;-68
2022/04/20 05:32:47;;;;;;;2.23;2.13;;;7.00;99.90;;;;;;6174241;28;20586;-68
2022/04/20 05:35:55;;;;;;;2.50;2.30;;;7.10;99.90;;;;;;6159611;28;20235;-68
2022/04/20 05:42:28;;;;;;;1.77;1.77;;;7.20;99.90;;;;;;6158604;28;20594;-67
2022/04/20 05:45:36;;;;;;;3.30;2.10;;;7.30;99.90;;;;;;6175262;28;20238;-67
2022/04/20 05:49:08;;;;;;;2.17;2.10;;;7.30;99.90;;;;;;6173985;28;20233;-67
2022/04/20 05:52:13;;;;;;;1.98;1.83;;;7.40;99.90;;;;;;6158537;28;20300;-68
2022/04/20 05:55:21;;;;;;;2.58;2.00;;;7.40;99.90;;;;;;6174836;28;20241;-67
2022/04/20 05:58:26;;;;;;;6.13;2.20;;;7.50;99.90;;;;;;6174351;28;20242;-66
2022/04/20 06:01:33;;;;;;;7.03;2.08;;;7.60;99.90;;;;;;6159331;28;20240;-68
2022/04/20 06:04:58;;;;;;;5.45;2.30;;;7.70;99.90;;;;;;6166279;28;20642;-68
2022/04/20 06:08:23;;;;;;;3.28;2.33;;;7.70;99.90;;;;;;6166326;28;20694;-70
2022/04/20 06:11:42;;;;;;;8.80;2.63;;;7.80;99.90;;;;;;6160495;28;20243;-67
2022/04/20 06:14:52;;;;;;;6.32;2.63;;;7.90;99.90;;;;;;6166251;28;20232;-68
2022/04/20 06:18:23;;;;;;;4.53;2.30;;;8.00;99.90;;;;;;6181894;28;20243;-65
2022/04/20 06:21:51;;;;;;;5.50;2.50;;;8.10;99.90;;;;;;6146656;28;20234;-68
2022/04/20 06:25:23;;;;;;;9.38;2.30;;;8.30;99.90;;;;;;6146278;28;20631;-67
2022/04/20 06:29:05;;;;;;;6.07;2.22;;;8.50;99.90;;;;;;6141954;28;20235;-67
2022/04/20 06:32:31;;;;;;;3.33;2.10;;;8.70;99.90;;;;;;6151155;28;20227;-65
2022/04/20 06:35:49;;;;;;;2.72;2.03;;;8.80;99.90;;;;;;6150078;28;20235;-65
2022/04/20 06:39:15;;;;;;;3.72;2.17;;;9.00;99.90;;;;;;6148463;28;20239;-65
2022/04/20 06:42:39;;;;;;;2.45;2.15;;;9.20;99.90;;;;;;6151341;28;20235;-66
2022/04/20 06:46:07;;;;;;;9.27;2.08;;;9.50;99.90;;;;;;6181856;28;20250;-68
2022/04/20 06:49:16;;;;;;;3.63;2.20;;;10.00;99.90;;;;;;6156801;28;20696;-68
2022/04/20 06:59:24;;;;;;;2.45;1.88;;;10.50;99.90;;;;;;6149310;28;20245;-67
2022/04/20 07:02:46;;;;;;;2.13;1.85;;;10.30;99.90;;;;;;6149835;28;20246;-67
2022/04/20 07:06:17;;;;;;;7.93;2.00;;;10.30;99.90;;;;;;6173766;28;20230;-67
2022/04/20 07:09:49;;;;;;;5.13;1.70;;;10.40;99.90;;;;;;6151587;28;20566;-67
2022/04/20 07:12:59;;;;;;;2.33;1.65;;;10.30;99.90;;;;;;6172509;28;20238;-67
2022/04/20 07:16:05;;;;;;;1.60;1.60;;;10.40;99.90;;;;;;6174813;28;20234;-67
2022/04/20 07:19:16;;;;;;;1.63;1.60;;;10.50;99.90;;;;;;6172524;28;20233;-67
2022/04/20 07:22:37;;;;;;;2.00;1.80;;;10.50;99.90;;;;;;6174471;28;20233;-67
2022/04/20 07:25:49;;;;;;;8.00;1.90;;;10.60;99.90;;;;;;6156633;28;20230;-68
2022/04/20 07:29:13;;;;;;;3.13;1.70;;;10.80;99.90;;;;;;6173817;28;20241;-66
2022/04/20 07:32:26;;;;;;;1.67;1.63;;;10.70;99.90;;;;;;6172040;28;20237;-67
2022/04/20 07:36:12;;;;;;;2.13;1.80;;;10.80;99.90;;;;;;6170595;28;20237;-67
2022/04/20 07:39:36;;;;;;;2.80;1.70;;;10.70;99.90;;;;;;6173677;28;20604;-66
2022/04/20 07:43:00;;;;;;;2.60;1.70;;;10.80;99.90;;;;;;6173938;28;20245;-67
2022/04/20 07:46:24;;;;;;;1.52;1.52;;;10.90;99.90;;;;;;6174004;28;20235;-67
2022/04/20 07:53:28;;;;;;;4.57;1.63;;;10.90;99.90;;;;;;6155825;28;20238;-68
2022/04/20 07:56:34;;;;;;;2.75;1.60;;;10.90;99.90;;;;;;6173663;28;20249;-68
2022/04/20 07:59:59;;;;;;;1.60;1.60;;;10.90;99.90;;;;;;6156525;28;20649;-66
2022/04/20 08:03:39;;;;;;;2.00;1.90;;;10.90;99.90;;;;;;6172884;28;20737;-66
2022/04/20 08:06:47;;;;;;;1.50;1.50;;;10.90;99.90;;;;;;6157549;28;20238;-67
2022/04/20 08:09:54;;;;;;;2.15;1.70;;;11.00;99.90;;;;;;6172197;28;20229;-67
2022/04/20 08:12:59;;;;;;;3.60;1.90;;;11.10;99.90;;;;;;6173050;28;20546;-67
2022/04/20 08:16:06;;;;;;;1.70;1.60;;;11.10;99.60;;;;;;6156619;28;20233;-66
2022/04/20 08:19:25;;;;;;;2.35;1.58;;;11.20;99.40;;;;;;6156349;28;20296;-68
2022/04/20 08:22:42;;;;;;;1.50;1.50;;;11.10;98.90;;;;;;6172769;28;20264;-67
2022/04/20 08:25:48;;;;;;;1.58;1.48;;;11.10;98.80;;;;;;6173315;28;20697;-67
2022/04/20 08:28:54;;;;;;;5.40;1.58;;;11.20;98.80;;;;;;6172756;28;20245;-67
2022/04/20 08:31:59;;;;;;;1.65;1.60;;;11.10;98.90;;;;;;6173503;28;20515;-68
2022/04/20 08:35:06;;;;;;;1.92;1.80;;;11.20;98.70;;;;;;6172627;28;20233;-67
2022/04/20 08:38:14;;;;;;;4.28;1.90;;;11.20;98.70;;;;;;6172801;28;20589;-67
2022/04/20 08:41:21;;;;;;;1.58;1.58;;;11.20;98.80;;;;;;6173436;28;20242;-67
2022/04/20 08:44:27;;;;;;;1.88;1.55;;;11.20;98.70;;;;;;6173168;28;20226;-67
2022/04/20 08:47:36;;;;;;;1.48;1.48;;;11.30;98.60;;;;;;6175497;28;20238;-67
2022/04/20 08:50:42;;;;;;;1.40;1.40;;;11.30;98.60;;;;;;6173311;28;20238;-67
2022/04/20 08:53:48;;;;;;;1.77;1.70;;;11.30;98.30;;;;;;6172363;28;20237;-71
2022/04/20 09:00:21;;;;;;;1.52;1.52;;;11.40;98.10;;;;;;6172184;28;20415;-68
2022/04/20 09:03:27;;;;;;;1.45;1.45;;;11.50;98.20;;;;;;6176923;28;20246;-67
2022/04/20 09:06:33;;;;;;;1.63;1.55;;;11.40;97.70;;;;;;6177954;28;20234;-67
2022/04/20 09:09:39;;;;;;;2.50;1.60;;;11.50;97.90;;;;;;6176804;28;20238;-68
2022/04/20 09:12:47;;;;;;;3.03;1.85;;;11.50;97.70;;;;;;6177864;28;20592;-67
2022/04/20 09:15:54;;;;;;;2.63;1.70;;;11.50;97.70;;;;;;6177176;28;20230;-68
2022/04/20 09:19:00;;;;;;;1.95;1.63;;;11.40;97.50;;;;;;6176835;28;20252;-67
2022/04/20 09:22:19;;;;;;;1.50;1.50;;;11.40;97.30;;;;;;6177095;28;20322;-68
2022/04/20 09:25:31;;;;;;;1.83;1.73;;;11.50;97.40;;;;;;6176513;28;20230;-68
2022/04/20 09:28:40;;;;;;;2.30;1.50;;;11.60;97.20;;;;;;6181832;28;20235;-67
2022/04/20 09:31:47;;;;;;;1.70;1.70;;;11.60;97.00;;;;;;6184760;28;20239;-67
2022/04/20 09:34:59;;;;;;;1.67;1.67;;;11.60;96.80;;;;;;6180692;28;20230;-68
2022/04/20 09:38:07;;;;;;;1.95;1.85;;;11.60;96.90;;;;;;6184241;28;20227;-66
2022/04/20 09:41:58;;;;;;;1.60;1.58;;;11.60;96.80;;;;;;6186797;28;20241;-68
2022/04/20 09:45:08;;;;;;;2.63;1.70;;;11.70;96.70;;;;;;6180617;28;20237;-68
2022/04/20 09:51:41;;;;;;;1.90;1.90;;;11.80;96.30;;;;;;6176934;28;20232;-67
2022/04/20 09:54:53;;;;;;;2.08;1.92;;;11.80;96.00;;;;;;6175982;28;20242;-68
2022/04/20 09:58:11;;;;;;;2.55;1.90;;;11.80;96.20;;;;;;6175746;28;20230;-67
2022/04/20 10:01:31;;;;;;;1.95;1.85;;;11.80;96.40;;;;;;6159812;28;20227;-68
2022/04/20 10:04:39;;;;;;;4.13;1.80;;;11.80;95.90;;;;;;6175151;28;20231;-67
2022/04/20 10:07:44;;;;;;;3.65;1.80;;;11.80;96.00;;;;;;6175813;28;20240;-68
2022/04/20 10:10:52;;;;;;;1.85;1.85;;;11.80;95.60;;;;;;6159214;28;20242;-68
2022/04/20 10:17:26;;;;;;;4.53;1.90;;;11.90;95.60;;;;;;6175873;28;20227;-67
2022/04/20 10:20:33;;;;;;;1.95;1.95;;;12.00;95.30;;;;;;6175731;28;20230;-67
2022/04/20 10:23:42;;;;;;;2.00;2.00;;;12.00;95.30;;;;;;6175254;28;20253;-67
2022/04/20 10:26:48;;;;;;;3.13;1.85;;;12.00;95.10;;;;;;6176965;28;20249;-67
2022/04/20 10:29:59;;;;;;;2.60;1.80;;;12.00;95.10;;;;;;6175842;28;20238;-68
2022/04/20 10:33:09;;;;;;;2.40;2.20;;;12.10;95.00;;;;;;6174789;28;20677;-67
2022/04/20 10:36:17;;;;;;;2.15;2.00;;;12.10;95.00;;;;;;6158252;28;20223;-66
2022/04/20 10:39:36;;;;;;;2.78;2.17;;;12.10;94.50;;;;;;6173812;28;20712;-68
2022/04/20 10:43:19;;;;;;;2.25;2.22;;;12.20;94.40;;;;;;6156738;28;20236;-67
2022/04/20 10:46:25;;;;;;;12.48;2.50;;;12.20;94.10;;;;;;6175148;28;20577;-67
2022/04/20 10:49:35;;;;;;;5.10;2.60;;;12.10;94.10;;;;;;6174544;28;20250;-67
2022/04/20 10:52:42;;;;;;;2.28;2.28;;;12.10;93.80;;;;;;6174243;28;20237;-67
2022/04/20 10:55:53;;;;;;;2.38;2.17;;;12.10;93.90;;;;;;6173464;28;20234;-67
2022/04/20 10:59:10;;;;;;;2.47;2.28;;;12.20;93.90;;;;;;6174142;28;20222;-67
2022/04/20 11:02:15;;;;;;;2.75;2.55;;;12.10;93.90;;;;;;6174038;28;20226;-68
2022/04/20 11:05:23;;;;;;;2.72;2.63;;;12.20;93.70;;;;;;6174665;28;20230;-67
2022/04/20 11:08:28;;;;;;;3.00;2.70;;;12.20;93.60;;;;;;6174534;28;20244;-67
2022/04/20 11:19:34;;;;;;;2.42;2.42;;;12.30;93.20;;;;;;6159951;28;20257;-67
2022/04/20 11:23:06;;;;;;;2.78;2.67;;;12.20;92.90;;;;;;6174509;28;20238;-68
2022/04/20 11:26:14;;;;;;;9.93;3.53;;;12.20;93.10;;;;;;6175203;28;20240;-67
2022/04/20 11:29:22;;;;;;;2.70;2.65;;;12.20;93.10;;;;;;6173903;28;20242;-67
2022/04/20 11:32:29;;;;;;;2.72;2.72;;;12.20;93.00;;;;;;6173791;28;20226;-68
2022/04/20 11:35:57;;;;;;;2.20;2.20;;;12.40;92.90;;;;;;6172404;28;20245;-67
2022/04/20 11:39:03;;;;;;;2.70;2.50;;;12.30;92.70;;;;;;6173684;28;20246;-67
2022/04/20 11:42:11;;;;;;;2.65;2.50;;;12.30;92.40;;;;;;6173241;28;20261;-67
2022/04/20 11:45:32;;;;;;;2.45;2.45;;;12.20;92.40;;;;;;6173891;28;20303;-67
2022/04/20 11:48:48;;;;;;;2.65;2.53;;;12.30;92.40;;;;;;6156504;28;20241;-67
2022/04/20 11:51:57;;;;;;;2.60;2.40;;;12.40;92.10;;;;;;6174138;28;20234;-68
2022/04/20 11:55:07;;;;;;;2.40;2.30;;;12.40;92.00;;;;;;6155808;28;20238;-69
2022/04/20 11:58:15;;;;;;;4.32;2.58;;;12.40;91.70;;;;;;6156246;28;20222;-67
2022/04/20 12:01:25;;;;;;;2.95;2.90;;;12.30;91.30;;;;;;6173501;28;20234;-67
2022/04/20 12:04:30;;;;;;;3.30;2.90;;;12.40;91.40;;;;;;6172615;28;20242;-68
2022/04/20 12:07:36;;;;;;;2.85;2.72;;;12.40;91.10;;;;;;6172591;28;20245;-68
2022/04/20 12:10:43;;;;;;;2.85;2.75;;;12.30;91.20;;;;;;6173410;28;20242;-69
2022/04/20 12:13:55;;;;;;;2.80;2.80;;;12.40;91.10;;;;;;6173276;28;20245;-68
2022/04/20 12:17:04;;;;;;;3.97;3.30;;;12.40;91.00;;;;;;6173006;28;20533;-69
2022/04/20 12:20:14;;;;;;;3.38;3.05;;;12.40;91.20;;;;;;6171885;28;20230;-67
2022/04/20 12:23:20;;;;;;;2.85;2.80;;;12.40;91.30;;;;;;6155691;28;20260;-68
2022/04/20 12:26:29;;;;;;;2.78;2.67;;;12.40;91.10;;;;;;6173112;28;20248;-69
2022/04/20 12:29:34;;;;;;;3.78;3.53;;;12.40;91.10;;;;;;6172294;28;20245;-67
2022/04/20 12:32:40;;;;;;;3.13;2.92;;;12.50;90.80;;;;;;6172456;28;20579;-68
2022/04/20 12:36:00;;;;;;;2.72;2.63;;;12.50;90.90;;;;;;6172832;28;20234;-68
2022/04/20 12:39:28;;;;;;;3.67;2.80;;;12.50;90.50;;;;;;6154397;28;20259;-67
2022/04/20 12:42:35;;;;;;;2.92;2.72;;;12.40;90.10;;;;;;6171808;28;20291;-67
2022/04/20 12:45:43;;;;;;;2.65;2.60;;;12.40;88.90;;;;;;6172703;28;20603;-67
2022/04/20 12:48:49;;;;;;;2.78;2.60;;;12.40;88.60;;;;;;6172047;28;20234;-67
2022/04/20 12:52:08;;;;;;;3.00;2.90;;;12.40;88.70;;;;;;6172844;28;20698;-69
2022/04/20 12:55:14;;;;;;;3.38;3.28;;;12.60;88.70;;;;;;6172018;28;20233;-67
2022/04/20 13:05:13;;;;;;;3.45;3.35;;;12.60;88.40;;;;;;6171607;28;20724;-68
2022/04/20 13:08:19;;;;;;;3.38;3.25;;;12.70;87.00;;;;;;6172373;28;20257;-68
2022/04/20 13:11:24;;;;;;;3.42;3.35;;;12.70;86.80;;;;;;6172632;28;20238;-67
2022/04/20 13:14:47;;;;;;;3.60;3.42;;;12.60;86.90;;;;;;6172239;28;20237;-67
2022/04/20 13:17:53;;;;;;;3.70;3.60;;;12.60;88.80;;;;;;6171328;28;20226;-67
2022/04/20 13:20:58;;;;;;;3.83;3.70;;;12.60;87.90;;;;;;6172366;28;20230;-69
2022/04/20 13:24:06;;;;;;;3.28;3.10;;;12.60;89.50;;;;;;6171568;28;20238;-69
2022/04/20 13:30:39;;;;;;;3.40;3.10;;;12.60;87.50;;;;;;6172039;28;20230;-68
2022/04/20 13:33:46;;;;;;;3.03;2.92;;;12.60;87.90;;;;;;6171651;28;20247;-67
2022/04/20 13:36:56;;;;;;;3.00;2.90;;;12.70;87.80;;;;;;6172391;28;20230;-68
2022/04/20 13:40:01;;;;;;;2.75;2.75;;;12.70;86.10;;;;;;6172021;28;20240;-68
2022/04/20 13:43:09;;;;;;;3.10;2.90;;;12.70;86.30;;;;;;6171268;28;20239;-67
2022/04/20 13:46:15;;;;;;;2.90;2.80;;;12.70;85.70;;;;;;6172399;28;20558;-67
2022/04/20 13:49:21;;;;;;;2.90;2.90;;;12.70;85.40;;;;;;6175232;28;20245;-68
2022/04/20 13:52:26;;;;;;;2.90;2.80;;;12.70;86.30;;;;;;6175871;28;20233;-68
2022/04/20 13:55:31;;;;;;;2.58;2.40;;;12.70;85.70;;;;;;6176937;28;20235;-66
2022/04/20 13:58:37;;;;;;;2.60;2.35;;;12.80;84.10;;;;;;6175217;28;20249;-68
2022/04/20 14:01:44;;;;;;;2.30;2.30;;;12.70;82.60;;;;;;6176295;28;20237;-68
2022/04/20 14:04:50;;;;;;;2.15;2.15;;;12.70;79.50;;;;;;6175270;28;20234;-67
2022/04/20 14:07:56;;;;;;;3.85;2.88;;;12.70;79.90;;;;;;6175208;28;20696;-67
2022/04/20 14:11:02;;;;;;;2.00;2.00;;;12.60;78.20;;;;;;6176238;28;20245;-69
2022/04/20 14:14:08;;;;;;;2.20;2.03;;;12.70;77.20;;;;;;6175681;28;20245;-69
2022/04/20 14:17:15;;;;;;;2.05;1.90;;;12.80;77.40;;;;;;6175444;28;20226;-69
2022/04/20 14:20:21;;;;;;;2.03;1.92;;;12.80;75.70;;;;;;6174718;28;20227;-69
2022/04/20 14:23:27;;;;;;;1.95;1.80;;;12.70;74.80;;;;;;6148430;28;20242;-69
2022/04/20 14:33:20;;;;;;;1.60;1.60;;;12.70;76.10;;;;;;6174605;28;20238;-68
2022/04/20 14:36:25;;;;;;;1.80;1.67;;;12.70;75.80;;;;;;6175537;28;20231;-68
2022/04/20 14:39:31;;;;;;;1.60;1.60;;;12.70;74.90;;;;;;6174998;28;20307;-67
2022/04/20 14:42:37;;;;;;;1.60;1.60;;;12.70;74.60;;;;;;6174873;28;20238;-68
2022/04/20 14:45:42;;;;;;;1.80;1.70;;;12.70;74.80;;;;;;6173896;28;20242;-68
2022/04/20 14:48:49;;;;;;;3.03;1.70;;;12.70;73.20;;;;;;6174567;28;20697;-67
2022/04/20 14:51:54;;;;;;;1.75;1.75;;;12.70;72.90;;;;;;6175279;28;20234;-68
2022/04/20 14:55:00;;;;;;;1.70;1.70;;;12.80;71.60;;;;;;6174891;28;20253;-68
2022/04/20 14:58:19;;;;;;;1.50;1.50;;;12.80;70.50;;;;;;6174557;28;20672;-67
2022/04/20 15:01:25;;;;;;;1.95;1.95;;;12.70;71.50;;;;;;6166466;28;20238;-68
2022/04/20 15:04:37;;;;;;;2.15;2.00;;;12.80;70.40;;;;;;6176335;28;20231;-68
2022/04/20 15:07:44;;;;;;;1.92;1.92;;;12.80;70.10;;;;;;6161325;28;20227;-67
2022/04/20 15:10:50;;;;;;;1.70;1.70;;;12.80;70.90;;;;;;6196104;28;20302;-68
2022/04/20 15:13:57;;;;;;;1.95;1.80;;;12.90;70.70;;;;;;6195951;28;20298;-68
2022/04/20 15:17:03;;;;;;;1.80;1.80;;;12.80;70.80;;;;;;6182043;28;20240;-67
2022/04/20 15:20:12;;;;;;;1.90;1.90;;;12.70;71.20;;;;;;6181599;28;20586;-67
2022/04/20 15:23:18;;;;;;;2.05;2.00;;;12.80;72.00;;;;;;6173696;28;20238;-67
2022/04/20 15:26:24;;;;;;;1.70;1.70;;;12.80;72.60;;;;;;6174286;28;20230;-66
2022/04/20 15:29:29;;;;;;;2.67;1.98;;;12.80;72.70;;;;;;6172453;28;20244;-68
2022/04/20 15:32:35;;;;;;;3.45;1.60;;;12.70;73.10;;;;;;6173951;28;20230;-68
2022/04/20 15:35:42;;;;;;;1.80;1.70;;;12.70;74.00;;;;;;6174337;28;20715;-67
2022/04/20 15:38:49;;;;;;;1.88;1.80;;;12.70;74.80;;;;;;6173683;28;20242;-68
2022/04/20 15:41:54;;;;;;;1.92;1.92;;;12.80;74.60;;;;;;6156979;28;20234;-69
2022/04/20 15:44:59;;;;;;;1.75;1.67;;;12.70;74.60;;;;;;6173756;28;20242;-68
2022/04/20 15:48:07;;;;;;;1.88;1.77;;;12.80;74.90;;;;;;6173009;28;20559;-68
2022/04/20 15:51:14;;;;;;;4.13;1.90;;;12.70;74.80;;;;;;6173849;28;20570;-69
2022/04/20 15:54:19;;;;;;;1.85;1.85;;;12.70;75.40;;;;;;6173655;28;20230;-67
2022/04/20 16:00:48;;;;;;;1.50;1.50;;;12.60;76.30;;;;;;6173048;28;20241;-67
2022/04/20 16:03:54;;;;;;;1.83;1.83;;;12.50;77.10;;;;;;6172490;28;20242;-68
2022/04/20 16:07:01;;;;;;;1.70;1.70;;;12.60;77.50;;;;;;6173373;28;20234;-68
2022/04/20 16:10:07;;;;;;;1.90;1.90;;;12.70;76.90;;;;;;6172657;28;20715;-67
2022/04/20 16:13:15;;;;;;;2.08;1.77;;;12.60;78.30;;;;;;6155547;28;20227;-67
2022/04/20 16:16:21;;;;;;;1.70;1.70;;;12.60;78.40;;;;;;6172967;28;20230;-67
2022/04/20 16:19:28;;;;;;;1.85;1.83;;;12.60;78.40;;;;;;6173393;28;20234;-70
2022/04/20 16:22:37;;;;;;;1.60;1.60;;;12.50;78.20;;;;;;6172683;28;20253;-67
2022/04/20 16:25:42;;;;;;;1.85;1.85;;;12.60;78.00;;;;;;6172885;28;20238;-68
2022/04/20 16:28:48;;;;;;;1.92;1.83;;;12.50;77.60;;;;;;6172535;28;20577;-66
2022/04/20 16:31:54;;;;;;;1.52;1.52;;;12.40;77.30;;;;;;6154575;28;20304;-66
2022/04/20 16:35:02;;;;;;;1.83;1.83;;;12.40;76.60;;;;;;6172555;28;20677;-66
2022/04/20 16:38:17;;;;;;;2.22;1.80;;;12.40;76.40;;;;;;6155208;28;20233;-67
2022/04/20 16:41:23;;;;;;;2.00;1.90;;;12.40;75.20;;;;;;6172754;28;20621;-67
2022/04/20 16:44:33;;;;;;;3.05;1.85;;;12.40;75.90;;;;;;6172544;28;20242;-68
2022/04/20 16:47:39;;;;;;;1.85;1.85;;;12.40;75.60;;;;;;6172674;28;20227;-67
2022/04/20 16:50:44;;;;;;;4.45;4.05;;;12.40;75.80;;;;;;6172706;28;20230;-67
2022/04/20 16:53:51;;;;;;;1.90;1.90;;;12.30;74.90;;;;;;6172552;28;20242;-67
2022/04/20 16:56:56;;;;;;;2.50;2.50;;;12.30;74.70;;;;;;6172479;28;20234;-69
2022/04/20 17:00:02;;;;;;;1.95;1.95;;;12.30;73.40;;;;;;6172526;28;20226;-68
2022/04/20 17:03:10;;;;;;;1.70;1.70;;;12.30;74.40;;;;;;6161179;28;20250;-67
2022/04/20 17:06:16;;;;;;;1.80;1.80;;;12.30;74.00;;;;;;6172511;28;20236;-68
2022/04/20 17:09:23;;;;;;;1.80;1.80;;;12.30;73.70;;;;;;6171814;28;20322;-66
2022/04/20 17:12:28;;;;;;;2.13;2.03;;;12.30;73.40;;;;;;6154645;28;20230;-66
2022/04/20 17:15:34;;;;;;;2.70;1.98;;;12.30;73.80;;;;;;6172654;28;20252;-67
2022/04/20 17:18:41;;;;;;;2.10;2.00;;;12.30;73.90;;;;;;6172000;28;20242;-69
2022/04/20 17:28:35;;;;;;;1.98;1.98;;;12.20;74.80;;;;;;6177855;28;20238;-68
2022/04/20 17:31:42;;;;;;;1.88;1.77;;;12.20;75.90;;;;;;6176845;28;20238;-67
2022/04/20 17:36:36;;;;;;;1.75;1.75;;;12.10;75.80;;;;;;6176658;28;20237;-68
2022/04/20 17:38:13;;;;;;;2.22;1.85;;;12.10;76.90;;;;;;6175993;28;20233;-68
2022/04/20 17:41:19;;;;;;;3.85;1.80;;;12.00;77.00;;;;;;6177465;28;20682;-68
2022/04/20 17:44:25;;;;;;;2.33;2.03;;;12.00;76.90;;;;;;6176794;28;20227;-68